Terminal Aerodrome Forecast
Issued by NWS

Home | Current Version | Previous Version | Graphics & Text | Print | Product List | Glossary On
Versions: 1 2 3 4 5 6 7 8 9 10 11 12 13 14 15 16 17 18 19
422
FTUS43 KBIS 200534
TAFDIK
TAF
KDIK 200534Z 2006/2106 16009KT P6SM FEW250
     FM201300 20006KT P6SM FEW250
     FM202000 18012KT P6SM FEW250
     FM210000 15009KT P6SM SCT250
     FM210300 23016KT P6SM FEW250 WS020/26035KT
     FM210500 27025G34KT P6SM FEW250=

USA.gov is the U.S. government's official web portal to all federal, state and local government web resources and services.